Time;durP1;ratioP1;P1;durP2;ratioP2;P2;SDS_P1;SDS_P2;PMS_P1;PMS_P2;Temp;Humidity;BMP_temperature;BMP_pressure;BME280_temperature;BME280_humidity;BME280_pressure;Samples;Min_cycle;Max_cycle;Signal;HPM_P1;HPM_P2
2023/04/13 00:01:31;;;;;;;3.42;1.90;;;7.30;99.90;;;;;;4985604;28;20042;-72
2023/04/13 00:04:35;;;;;;;3.58;1.27;;;7.30;99.90;;;;;;5000537;28;20124;-72
2023/04/13 00:07:02;;;;;;;2.55;1.35;;;7.10;99.90;;;;;;5016115;28;20053;-72
2023/04/13 00:09:31;;;;;;;4.35;1.30;;;6.90;99.90;;;;;;5012549;28;20045;-72
2023/04/13 00:11:57;;;;;;;2.83;1.20;;;6.80;99.90;;;;;;5012896;28;20570;-72
2023/04/13 00:14:26;;;;;;;2.30;1.20;;;6.70;99.90;;;;;;5013957;28;20124;-72
2023/04/13 00:16:55;;;;;;;2.55;1.38;;;6.70;99.90;;;;;;4984968;28;20049;-72
2023/04/13 00:19:21;;;;;;;3.08;1.35;;;6.60;99.90;;;;;;4998205;28;20046;-72
2023/04/13 00:21:47;;;;;;;1.92;1.30;;;6.50;99.90;;;;;;5014819;28;20508;-72
2023/04/13 00:24:14;;;;;;;2.30;1.23;;;6.60;99.90;;;;;;5015313;28;20057;-71
2023/04/13 00:26:43;;;;;;;2.10;1.20;;;6.60;99.90;;;;;;5013568;28;20052;-72
2023/04/13 00:29:10;;;;;;;1.95;1.20;;;6.40;99.90;;;;;;5031481;28;20050;-71
2023/04/13 00:31:36;;;;;;;2.33;1.15;;;6.40;99.90;;;;;;5031142;28;20052;-71
2023/04/13 00:34:03;;;;;;;1.77;1.23;;;6.30;99.90;;;;;;4998712;28;20080;-72
2023/04/13 00:36:28;;;;;;;3.25;1.25;;;6.30;99.90;;;;;;5014189;28;20065;-71
2023/04/13 00:38:57;;;;;;;3.35;1.55;;;6.30;99.90;;;;;;4998828;28;20068;-71
2023/04/13 00:41:24;;;;;;;3.90;1.30;;;6.30;99.90;;;;;;5003982;28;20045;-71
2023/04/13 00:43:54;;;;;;;2.33;1.30;;;6.30;99.90;;;;;;5012890;28;20045;-71
2023/04/13 00:46:21;;;;;;;2.40;1.25;;;6.50;99.90;;;;;;5016141;28;20432;-72
2023/04/13 00:48:47;;;;;;;2.03;1.20;;;6.30;99.90;;;;;;4997384;28;20050;-71
2023/04/13 00:51:14;;;;;;;2.30;1.27;;;6.30;99.90;;;;;;5001306;28;20512;-71
2023/04/13 00:53:43;;;;;;;3.05;1.58;;;6.20;99.90;;;;;;4996197;28;20095;-72
2023/04/13 00:56:09;;;;;;;2.40;1.52;;;6.20;99.90;;;;;;5014091;28;20095;-72
2023/04/13 00:58:36;;;;;;;2.33;1.30;;;6.20;99.90;;;;;;5014203;28;20053;-72
2023/04/13 01:01:03;;;;;;;2.60;1.58;;;6.30;99.90;;;;;;4998472;28;20061;-71
2023/04/13 01:03:28;;;;;;;2.50;1.35;;;6.20;99.90;;;;;;5018440;28;20140;-72
2023/04/13 01:06:02;;;;;;;1.83;1.30;;;6.20;99.90;;;;;;4996117;28;20137;-70
2023/04/13 01:08:37;;;;;;;3.47;1.45;;;6.20;99.90;;;;;;5028945;28;20049;-71
2023/04/13 01:11:04;;;;;;;2.67;1.45;;;6.20;99.90;;;;;;5028907;28;20057;-71
2023/04/13 01:13:41;;;;;;;2.65;1.40;;;6.20;99.90;;;;;;4994964;28;20123;-71
2023/04/13 01:16:21;;;;;;;2.90;1.48;;;6.20;99.90;;;;;;5000319;28;20060;-72
2023/04/13 01:18:51;;;;;;;2.45;1.55;;;6.20;99.90;;;;;;5017714;28;20474;-73
2023/04/13 01:21:27;;;;;;;2.50;1.48;;;6.20;99.90;;;;;;5010654;28;20519;-70
2023/04/13 01:24:18;;;;;;;3.90;1.52;;;6.20;99.90;;;;;;5011686;28;20049;-71
2023/04/13 01:26:53;;;;;;;3.30;1.42;;;6.20;99.90;;;;;;5029426;28;20054;-72
2023/04/13 01:29:19;;;;;;;4.32;1.80;;;6.20;99.90;;;;;;4998280;28;20130;-71
2023/04/13 01:31:53;;;;;;;3.08;1.90;;;6.20;99.90;;;;;;4983449;28;20053;-72
2023/04/13 01:34:22;;;;;;;2.92;1.80;;;6.20;99.90;;;;;;5015715;28;20044;-70
2023/04/13 01:36:48;;;;;;;4.07;2.10;;;6.20;99.90;;;;;;5012041;28;20061;-71
2023/04/13 01:39:24;;;;;;;3.75;1.90;;;6.20;99.90;;;;;;4983544;28;20146;-72
2023/04/13 01:41:50;;;;;;;3.90;1.95;;;6.20;99.90;;;;;;5013027;28;20320;-70
2023/04/13 01:44:16;;;;;;;3.70;1.88;;;6.20;99.90;;;;;;5015829;28;20084;-71
2023/04/13 01:46:46;;;;;;;2.90;1.88;;;6.20;99.90;;;;;;5012907;28;20061;-73
2023/04/13 01:49:15;;;;;;;4.97;2.15;;;6.20;99.90;;;;;;5028807;28;20050;-72
2023/04/13 01:51:47;;;;;;;3.65;2.10;;;6.30;99.90;;;;;;5000338;28;20049;-71
2023/04/13 01:54:24;;;;;;;7.70;2.50;;;6.30;99.90;;;;;;5012637;28;20049;-72
2023/04/13 01:56:51;;;;;;;4.45;1.70;;;6.30;99.90;;;;;;5010866;28;20062;-71
2023/04/13 01:59:18;;;;;;;4.00;1.45;;;6.30;99.90;;;;;;4995364;28;20137;-71
2023/04/13 02:01:43;;;;;;;2.40;0.90;;;6.30;99.90;;;;;;5011994;28;20054;-71
2023/04/13 02:04:09;;;;;;;3.08;0.90;;;6.30;99.90;;;;;;5029769;28;20095;-72
2023/04/13 02:06:36;;;;;;;3.85;1.23;;;6.30;99.90;;;;;;5013520;28;20107;-71
2023/04/13 02:09:05;;;;;;;2.65;1.00;;;6.20;99.90;;;;;;4994285;28;20057;-72
2023/04/13 02:11:32;;;;;;;4.35;1.10;;;6.20;99.90;;;;;;5012932;28;20045;-72
2023/04/13 02:13:58;;;;;;;3.90;0.95;;;6.30;99.90;;;;;;5012713;28;20042;-71
2023/04/13 02:16:24;;;;;;;2.35;0.85;;;6.30;99.90;;;;;;5011371;28;20440;-72
2023/04/13 02:18:50;;;;;;;2.50;0.88;;;6.30;99.90;;;;;;5011906;28;20053;-70
2023/04/13 02:21:16;;;;;;;3.15;0.90;;;6.30;99.90;;;;;;5016636;28;20140;-71
2023/04/13 02:23:42;;;;;;;1.33;0.73;;;6.30;99.90;;;;;;4999565;28;20076;-71
2023/04/13 02:26:15;;;;;;;6.35;0.93;;;6.30;99.90;;;;;;5011105;28;20045;-71
2023/04/13 02:28:42;;;;;;;2.22;0.70;;;6.30;99.90;;;;;;5010734;28;20377;-70
2023/04/13 02:31:09;;;;;;;2.83;1.00;;;6.30;99.90;;;;;;5010445;28;20100;-71
2023/04/13 02:33:35;;;;;;;1.42;0.75;;;6.30;99.90;;;;;;5003185;28;20355;-70
2023/04/13 02:36:02;;;;;;;5.10;0.88;;;6.30;99.90;;;;;;4973444;28;20041;-71
2023/04/13 02:38:28;;;;;;;3.67;0.80;;;6.30;99.90;;;;;;4998044;28;20076;-71
2023/04/13 02:40:56;;;;;;;1.20;0.60;;;6.30;99.90;;;;;;5021819;28;20045;-71
2023/04/13 02:43:25;;;;;;;2.53;0.70;;;6.20;99.90;;;;;;5012554;28;20053;-72
2023/04/13 02:45:51;;;;;;;1.38;0.70;;;6.20;99.90;;;;;;5018834;28;20049;-70
2023/04/13 02:48:24;;;;;;;1.67;0.70;;;6.20;99.90;;;;;;5016508;28;20507;-72
2023/04/13 02:50:50;;;;;;;1.27;0.75;;;6.20;99.90;;;;;;5014365;28;20108;-73
2023/04/13 02:53:16;;;;;;;1.48;0.90;;;6.20;99.90;;;;;;5019493;28;20044;-70
2023/04/13 02:55:43;;;;;;;2.05;1.35;;;6.20;99.90;;;;;;5020803;28;20049;-71
2023/04/13 02:58:11;;;;;;;3.00;1.70;;;6.20;99.90;;;;;;5016007;28;20060;-70
2023/04/13 03:00:37;;;;;;;4.85;1.90;;;6.20;99.90;;;;;;5016285;28;20046;-71
2023/04/13 03:03:05;;;;;;;3.78;1.70;;;6.20;99.90;;;;;;5016571;28;20049;-73
2023/04/13 03:05:31;;;;;;;3.60;1.40;;;6.30;99.90;;;;;;5004847;28;20117;-71
2023/04/13 03:07:59;;;;;;;4.60;1.60;;;6.20;99.90;;;;;;5013599;28;20075;-72
2023/04/13 03:10:27;;;;;;;6.18;1.52;;;6.30;99.90;;;;;;5016514;28;20498;-71
2023/04/13 03:12:54;;;;;;;4.13;1.25;;;6.30;99.90;;;;;;5002360;28;20109;-71
2023/04/13 03:15:20;;;;;;;4.43;1.33;;;6.30;99.90;;;;;;5021331;28;20041;-72
2023/04/13 03:17:45;;;;;;;2.67;1.25;;;6.30;99.90;;;;;;4996147;28;20120;-70
2023/04/13 03:20:12;;;;;;;4.43;1.35;;;6.30;99.90;;;;;;5014973;28;20049;-71
2023/04/13 03:22:43;;;;;;;4.38;1.20;;;6.30;99.90;;;;;;5018318;28;20144;-71
2023/04/13 03:25:09;;;;;;;2.40;1.10;;;6.60;99.90;;;;;;5015188;28;20133;-72
2023/04/13 03:27:35;;;;;;;5.05;1.30;;;6.30;99.90;;;;;;4998840;28;20479;-71
2023/04/13 03:30:06;;;;;;;3.78;1.30;;;6.20;99.90;;;;;;5013683;28;20049;-70
2023/04/13 03:32:32;;;;;;;6.13;1.30;;;6.20;99.90;;;;;;5018422;28;20050;-71
2023/04/13 03:34:58;;;;;;;5.75;1.60;;;6.20;99.90;;;;;;4986534;28;20491;-71
2023/04/13 03:37:28;;;;;;;6.38;1.58;;;6.20;99.90;;;;;;5030111;28;20551;-72
2023/04/13 03:39:57;;;;;;;5.72;1.50;;;6.20;99.90;;;;;;5016540;28;20108;-71
2023/04/13 03:42:24;;;;;;;7.55;1.70;;;6.20;99.90;;;;;;5013507;28;20527;-72
2023/04/13 03:44:50;;;;;;;3.90;1.42;;;6.20;99.90;;;;;;5032670;28;20458;-72
2023/04/13 03:47:21;;;;;;;7.15;2.13;;;6.20;99.90;;;;;;5018377;28;20561;-73
2023/04/13 03:49:47;;;;;;;10.30;1.98;;;6.20;99.90;;;;;;5013372;28;20042;-72
2023/04/13 03:52:13;;;;;;;6.35;1.92;;;6.20;99.90;;;;;;5002957;28;20045;-70
2023/04/13 03:54:40;;;;;;;9.93;2.40;;;5.70;99.90;;;;;;4998417;28;20051;-71
2023/04/13 03:57:06;;;;;;;6.75;2.10;;;6.30;99.90;;;;;;5012499;28;20551;-71
2023/04/13 03:59:31;;;;;;;9.55;2.22;;;6.30;99.90;;;;;;4998207;28;20046;-71
2023/04/13 04:01:57;;;;;;;8.05;1.88;;;6.30;99.90;;;;;;5030603;28;20041;-71
2023/04/13 04:04:23;;;;;;;5.75;1.90;;;6.40;99.90;;;;;;5000470;28;20054;-72
2023/04/13 04:06:50;;;;;;;7.88;1.77;;;6.40;99.90;;;;;;5000774;28;20041;-70
2023/04/13 04:09:16;;;;;;;8.02;1.90;;;6.40;99.90;;;;;;5015428;28;20038;-71
2023/04/13 04:11:42;;;;;;;6.28;1.73;;;6.40;99.90;;;;;;4986049;28;20417;-71
2023/04/13 04:14:08;;;;;;;9.60;2.20;;;6.50;99.90;;;;;;5016548;28;20053;-71
2023/04/13 04:16:35;;;;;;;8.27;1.70;;;6.40;99.90;;;;;;4999062;28;20076;-70
2023/04/13 04:19:01;;;;;;;10.95;2.95;;;6.40;99.90;;;;;;5003595;28;20060;-71
2023/04/13 04:21:33;;;;;;;8.30;2.08;;;6.40;99.90;;;;;;5014024;28;20057;-71
2023/04/13 04:24:00;;;;;;;9.38;2.58;;;6.50;99.90;;;;;;5014757;28;20068;-72
2023/04/13 04:26:26;;;;;;;8.68;2.00;;;6.50;99.90;;;;;;5016986;28;20037;-72
2023/04/13 04:28:52;;;;;;;5.80;1.85;;;6.40;99.90;;;;;;5013452;28;20142;-72
2023/04/13 04:31:17;;;;;;;9.55;2.15;;;6.40;99.90;;;;;;4996552;28;20132;-71
2023/04/13 04:33:43;;;;;;;10.10;2.20;;;6.50;99.90;;;;;;5011381;28;20099;-74
2023/04/13 04:36:12;;;;;;;6.45;2.08;;;6.40;99.90;;;;;;5013873;28;20049;-73
2023/04/13 04:38:39;;;;;;;7.63;1.95;;;6.40;99.90;;;;;;5012966;28;20059;-73
2023/04/13 04:41:07;;;;;;;6.82;1.98;;;6.40;99.90;;;;;;4984951;28;20053;-73
2023/04/13 04:43:34;;;;;;;9.25;1.77;;;6.40;99.90;;;;;;5011803;28;20050;-72
2023/04/13 04:46:03;;;;;;;10.57;2.28;;;6.40;99.90;;;;;;5013447;28;20042;-72
2023/04/13 04:48:32;;;;;;;5.55;1.90;;;6.40;99.90;;;;;;4995997;28;20046;-73
2023/04/13 04:50:58;;;;;;;5.78;1.83;;;6.40;99.90;;;;;;5019886;28;20080;-72
2023/04/13 04:53:26;;;;;;;9.05;2.30;;;6.60;99.90;;;;;;5016080;28;20515;-72
2023/04/13 04:55:51;;;;;;;10.02;2.42;;;6.40;99.90;;;;;;4996424;28;20048;-72
2023/04/13 04:58:18;;;;;;;5.85;2.15;;;6.50;99.90;;;;;;4984482;28;20411;-72
2023/04/13 05:00:44;;;;;;;8.98;2.40;;;6.50;99.90;;;;;;4996423;28;20535;-74
2023/04/13 05:03:10;;;;;;;7.68;2.00;;;6.60;99.90;;;;;;5019405;28;20565;-72
2023/04/13 05:05:42;;;;;;;7.90;1.95;;;6.60;99.90;;;;;;5017957;28;20057;-72
2023/04/13 05:08:08;;;;;;;7.80;2.33;;;6.60;99.90;;;;;;4997369;28;20041;-73
2023/04/13 05:10:34;;;;;;;6.32;1.90;;;6.60;99.90;;;;;;4982588;28;20053;-73
2023/04/13 05:13:00;;;;;;;7.50;2.13;;;6.60;99.90;;;;;;5013493;28;20057;-75
2023/04/13 05:15:27;;;;;;;8.63;2.15;;;6.70;99.90;;;;;;4986856;28;20045;-75
2023/04/13 05:17:53;;;;;;;6.10;2.25;;;6.70;99.90;;;;;;4997150;28;20073;-73
2023/04/13 05:20:20;;;;;;;8.57;2.75;;;6.70;99.90;;;;;;5013159;28;20061;-73
2023/04/13 05:22:46;;;;;;;6.22;2.63;;;6.80;99.90;;;;;;5013054;28;20053;-74
2023/04/13 05:25:18;;;;;;;8.45;3.17;;;6.80;99.90;;;;;;5018081;28;20099;-74
2023/04/13 05:27:47;;;;;;;7.75;2.30;;;6.90;99.90;;;;;;4994849;28;20496;-74
2023/04/13 05:30:13;;;;;;;10.52;3.03;;;6.90;99.90;;;;;;4986221;28;20077;-75
2023/04/13 05:32:39;;;;;;;9.68;2.83;;;6.90;99.90;;;;;;5000192;28;20124;-73
2023/04/13 05:35:05;;;;;;;10.93;3.10;;;7.00;99.90;;;;;;5018428;28;20041;-72
2023/04/13 05:37:31;;;;;;;10.45;2.92;;;7.00;99.90;;;;;;4982880;28;20049;-73
2023/04/13 05:39:57;;;;;;;11.88;3.20;;;7.10;99.90;;;;;;4986255;28;20566;-74
2023/04/13 05:42:23;;;;;;;8.82;2.47;;;7.10;99.90;;;;;;5013810;28;20481;-73
2023/04/13 05:44:49;;;;;;;7.40;2.60;;;7.10;99.90;;;;;;4997444;28;20142;-72
2023/04/13 05:47:17;;;;;;;8.10;2.63;;;7.10;99.90;;;;;;5017012;28;20064;-72
2023/04/13 05:49:45;;;;;;;9.85;2.55;;;7.10;99.90;;;;;;5006045;28;20050;-73
2023/04/13 05:52:11;;;;;;;12.57;3.17;;;7.10;99.90;;;;;;5001357;28;20049;-72
2023/04/13 05:54:37;;;;;;;12.10;3.05;;;7.20;99.90;;;;;;4982081;28;20350;-73
2023/04/13 05:57:03;;;;;;;10.77;3.08;;;7.20;99.90;;;;;;5015242;28;20125;-73
2023/04/13 05:59:30;;;;;;;9.55;2.90;;;7.20;99.90;;;;;;4998861;28;20046;-72
2023/04/13 06:02:01;;;;;;;7.32;2.53;;;7.20;99.90;;;;;;5013824;28;20554;-73
2023/04/13 06:04:29;;;;;;;11.63;2.30;;;7.30;99.90;;;;;;4998761;28;20164;-74
2023/04/13 06:06:56;;;;;;;8.27;2.30;;;7.30;99.90;;;;;;4998476;28;20128;-73
2023/04/13 06:09:22;;;;;;;9.15;2.78;;;7.30;99.90;;;;;;5014622;28;20050;-73
2023/04/13 06:11:48;;;;;;;7.38;2.22;;;7.30;99.90;;;;;;5030633;28;20057;-73
2023/04/13 06:14:16;;;;;;;6.28;2.03;;;7.30;99.90;;;;;;5031244;28;20389;-74
2023/04/13 06:16:43;;;;;;;6.65;2.05;;;7.40;99.90;;;;;;4988090;28;20049;-73
2023/04/13 06:19:11;;;;;;;11.60;2.40;;;7.40;99.90;;;;;;4998455;28;20041;-72
2023/04/13 06:21:37;;;;;;;5.28;2.08;;;7.40;99.90;;;;;;5022493;28;20046;-73
2023/04/13 06:24:03;;;;;;;5.63;2.13;;;7.40;99.90;;;;;;5000019;28;20396;-72
2023/04/13 06:26:28;;;;;;;7.72;1.60;;;7.40;99.90;;;;;;4990595;28;20103;-73
2023/04/13 06:28:54;;;;;;;5.82;2.03;;;7.40;99.90;;;;;;4999408;28;20096;-72
2023/04/13 06:31:22;;;;;;;5.45;1.92;;;7.40;99.90;;;;;;5020546;28;20115;-72
2023/04/13 06:33:49;;;;;;;6.13;1.88;;;7.50;99.90;;;;;;5013773;28;20042;-72
2023/04/13 06:36:15;;;;;;;5.30;1.58;;;7.50;99.90;;;;;;5015750;28;20058;-71
2023/04/13 06:38:40;;;;;;;7.40;2.05;;;7.60;99.90;;;;;;5020621;28;20049;-73
2023/04/13 06:41:06;;;;;;;5.57;1.67;;;7.60;99.90;;;;;;4988161;28;20136;-72
2023/04/13 06:43:32;;;;;;;7.93;1.90;;;7.60;99.90;;;;;;4997907;28;20114;-73
2023/04/13 06:45:58;;;;;;;6.35;1.80;;;7.70;99.90;;;;;;5004464;28;20046;-73
2023/04/13 06:48:25;;;;;;;6.63;2.00;;;7.70;99.90;;;;;;5007478;28;20639;-73
2023/04/13 06:50:51;;;;;;;8.00;1.85;;;7.70;99.90;;;;;;5015416;28;20132;-73
2023/04/13 06:53:17;;;;;;;9.05;1.80;;;7.80;99.90;;;;;;5031580;28;20460;-73
2023/04/13 06:55:44;;;;;;;6.40;1.65;;;7.70;99.90;;;;;;5018485;28;20045;-73
2023/04/13 06:58:11;;;;;;;6.32;1.40;;;7.70;99.90;;;;;;5017350;28;20053;-72
2023/04/13 07:00:37;;;;;;;5.28;1.70;;;7.70;99.90;;;;;;5004707;28;20054;-73
2023/04/13 07:03:03;;;;;;;6.88;1.75;;;7.70;99.90;;;;;;5015213;28;20107;-73
2023/04/13 07:05:29;;;;;;;7.90;1.30;;;7.60;99.90;;;;;;5009039;28;20077;-74
2023/04/13 07:07:58;;;;;;;6.97;1.35;;;7.70;99.90;;;;;;5019822;28;20092;-73
2023/04/13 07:10:26;;;;;;;7.32;1.50;;;7.70;99.90;;;;;;4999471;28;20079;-73
2023/04/13 07:12:52;;;;;;;6.40;1.50;;;7.80;99.90;;;;;;5032373;28;20136;-73
2023/04/13 07:15:18;;;;;;;5.40;1.40;;;8.10;99.90;;;;;;5017182;28;20049;-73
2023/04/13 07:17:57;;;;;;;5.85;1.40;;;8.10;99.90;;;;;;5015881;28;20201;-74
2023/04/13 07:20:23;;;;;;;6.20;1.30;;;8.20;99.90;;;;;;5009523;28;20049;-73
2023/04/13 07:22:48;;;;;;;7.40;1.27;;;8.20;99.90;;;;;;5005491;28;20056;-73
2023/04/13 07:25:17;;;;;;;5.13;1.40;;;8.20;99.90;;;;;;4995328;28;20041;-73
2023/04/13 07:27:43;;;;;;;5.82;1.48;;;8.20;99.90;;;;;;4989906;28;20385;-73
2023/04/13 07:30:10;;;;;;;7.30;1.63;;;8.20;99.90;;;;;;5024002;28;20088;-73
2023/04/13 07:32:36;;;;;;;5.95;1.52;;;8.10;99.90;;;;;;5022318;28;20115;-73
2023/04/13 07:35:02;;;;;;;3.47;1.17;;;7.80;99.90;;;;;;5019299;28;20049;-74
2023/04/13 07:37:35;;;;;;;8.07;1.42;;;8.00;99.90;;;;;;5028236;28;20102;-74
2023/04/13 07:40:01;;;;;;;7.80;2.13;;;8.00;99.90;;;;;;5024917;28;20057;-74
2023/04/13 07:42:27;;;;;;;5.57;1.35;;;8.00;99.90;;;;;;5035960;28;20049;-73
2023/04/13 07:44:56;;;;;;;8.60;1.80;;;8.10;99.90;;;;;;5007843;28;20060;-73
2023/04/13 07:47:22;;;;;;;5.75;1.58;;;8.20;99.90;;;;;;5021755;28;20089;-74
2023/04/13 07:49:47;;;;;;;8.30;1.10;;;8.40;99.90;;;;;;4994296;28;20678;-72
2023/04/13 07:52:13;;;;;;;3.88;1.20;;;8.50;99.90;;;;;;5003286;28;20046;-73
2023/04/13 07:54:39;;;;;;;6.78;1.40;;;8.50;99.90;;;;;;5018463;28;20642;-72
2023/04/13 07:57:05;;;;;;;5.72;1.42;;;8.70;99.90;;;;;;5008584;28;20049;-72
2023/04/13 07:59:30;;;;;;;6.60;1.60;;;8.80;99.90;;;;;;5002956;28;20053;-73
2023/04/13 08:01:56;;;;;;;3.97;1.17;;;8.80;99.90;;;;;;5005593;28;20556;-73
2023/04/13 08:04:22;;;;;;;5.75;1.17;;;8.70;99.90;;;;;;5019310;28;20097;-71
2023/04/13 08:06:48;;;;;;;6.35;1.48;;;8.70;99.90;;;;;;5017569;28;20092;-73
2023/04/13 08:09:14;;;;;;;6.95;1.23;;;8.70;99.90;;;;;;5001773;28;20117;-73
2023/04/13 08:11:41;;;;;;;6.03;1.10;;;8.70;99.90;;;;;;4990704;28;20062;-73
2023/04/13 08:14:08;;;;;;;5.68;1.23;;;8.60;99.90;;;;;;5021599;28;20095;-73
2023/04/13 08:16:34;;;;;;;5.20;1.25;;;8.70;99.90;;;;;;5008019;28;20088;-73
2023/04/13 08:19:00;;;;;;;2.03;0.68;;;8.80;99.90;;;;;;5023674;28;20084;-73
2023/04/13 08:21:27;;;;;;;2.70;0.68;;;8.90;99.90;;;;;;5035105;28;20058;-74
2023/04/13 08:23:53;;;;;;;4.07;0.80;;;9.00;99.90;;;;;;5022576;28;20081;-74
2023/04/13 08:26:20;;;;;;;3.22;0.90;;;9.10;99.90;;;;;;4992397;28;20095;-75
2023/04/13 08:28:51;;;;;;;3.17;1.00;;;9.20;99.90;;;;;;5020499;28;20518;-73
2023/04/13 08:31:17;;;;;;;3.30;0.73;;;9.30;99.90;;;;;;5006466;28;20506;-73
2023/04/13 08:33:43;;;;;;;3.00;0.77;;;9.50;99.90;;;;;;5009542;28;20049;-73
2023/04/13 08:36:16;;;;;;;1.98;0.88;;;9.60;99.90;;;;;;5034555;28;20158;-73
2023/04/13 08:38:41;;;;;;;3.17;0.82;;;9.80;99.90;;;;;;5000449;28;20061;-74
2023/04/13 08:41:08;;;;;;;3.20;1.10;;;10.00;99.90;;;;;;5018598;28;20046;-73
2023/04/13 08:43:34;;;;;;;4.78;1.10;;;10.20;99.90;;;;;;5017848;28;20049;-73
2023/04/13 08:46:06;;;;;;;6.13;1.13;;;10.20;99.90;;;;;;5002373;28;20125;-74
2023/04/13 08:48:42;;;;;;;6.80;0.98;;;10.30;99.90;;;;;;4986595;28;20076;-73
2023/04/13 08:51:09;;;;;;;6.03;1.40;;;10.10;99.90;;;;;;5016811;28;20489;-73
2023/04/13 08:53:35;;;;;;;9.27;1.70;;;10.00;99.90;;;;;;5005444;28;20053;-73
2023/04/13 08:56:02;;;;;;;3.97;1.30;;;9.80;99.90;;;;;;5024072;28;20049;-73
2023/04/13 08:58:33;;;;;;;7.32;1.70;;;9.70;99.90;;;;;;5018129;28;20116;-73
2023/04/13 09:01:06;;;;;;;3.42;1.10;;;9.80;99.90;;;;;;5019741;28;20488;-73
2023/04/13 09:03:36;;;;;;;3.05;1.02;;;9.80;99.90;;;;;;5000095;28;20492;-74
2023/04/13 09:06:09;;;;;;;2.17;0.90;;;9.80;99.90;;;;;;4991959;28;20054;-74
2023/04/13 09:08:35;;;;;;;5.85;1.42;;;9.90;99.90;;;;;;5017854;28;20038;-73
2023/04/13 09:11:02;;;;;;;2.80;1.10;;;9.80;99.90;;;;;;5006311;28;20079;-73
2023/04/13 09:13:28;;;;;;;4.70;1.10;;;9.70;99.90;;;;;;4998728;28;20055;-73
2023/04/13 09:15:54;;;;;;;4.38;1.10;;;9.70;99.90;;;;;;4998501;28;20374;-73
2023/04/13 09:18:20;;;;;;;5.78;1.38;;;9.70;99.90;;;;;;5005232;28;20045;-73
2023/04/13 09:20:59;;;;;;;5.10;1.15;;;9.70;99.90;;;;;;4990850;28;20049;-74
2023/04/13 09:23:25;;;;;;;5.43;1.20;;;9.70;99.90;;;;;;5016057;28;20054;-73
2023/04/13 09:26:05;;;;;;;4.78;1.30;;;9.70;99.90;;;;;;5021032;28;20042;-73
2023/04/13 09:28:31;;;;;;;8.15;1.60;;;9.80;99.90;;;;;;5001599;28;20049;-74
2023/04/13 09:31:04;;;;;;;6.93;1.40;;;9.80;99.90;;;;;;5015884;28;20050;-73
2023/04/13 09:33:50;;;;;;;7.80;1.67;;;9.80;99.90;;;;;;5006915;28;20381;-73
2023/04/13 09:36:19;;;;;;;5.47;1.58;;;9.90;99.90;;;;;;5022745;28;20528;-73
2023/04/13 09:38:53;;;;;;;4.53;1.73;;;9.80;99.90;;;;;;5017474;28;20053;-74
2023/04/13 09:41:39;;;;;;;9.27;2.30;;;9.60;99.90;;;;;;5023172;28;20174;-74
2023/04/13 09:44:19;;;;;;;8.60;1.77;;;9.40;99.90;;;;;;5015347;28;20056;-73
2023/04/13 09:46:59;;;;;;;5.13;1.50;;;9.20;99.90;;;;;;5015656;28;20245;-73
2023/04/13 09:49:25;;;;;;;5.43;1.40;;;9.00;99.90;;;;;;4989701;28;20049;-73
2023/04/13 09:51:55;;;;;;;5.65;1.40;;;8.80;99.90;;;;;;5014455;28;20139;-73
2023/04/13 09:54:21;;;;;;;5.20;1.52;;;8.60;99.90;;;;;;5007807;28;20160;-73
2023/04/13 09:56:56;;;;;;;11.55;1.88;;;8.60;99.90;;;;;;5001837;28;20136;-73
2023/04/13 09:59:23;;;;;;;6.93;1.35;;;8.40;99.90;;;;;;5019632;28;20054;-73
2023/04/13 10:01:50;;;;;;;5.63;1.00;;;8.40;99.90;;;;;;5033257;28;20058;-73
2023/04/13 10:04:17;;;;;;;3.38;1.20;;;8.40;99.90;;;;;;5032493;28;20060;-74
2023/04/13 10:06:51;;;;;;;6.50;1.27;;;8.30;99.90;;;;;;4990011;28;20045;-73
2023/04/13 10:09:17;;;;;;;10.10;2.15;;;8.30;99.90;;;;;;5000894;28;20049;-72
2023/04/13 10:11:49;;;;;;;7.22;1.80;;;8.30;99.90;;;;;;5016075;28;20056;-73
2023/04/13 10:14:20;;;;;;;6.28;1.40;;;8.20;99.90;;;;;;5016002;28;20138;-73
2023/04/13 10:17:24;;;;;;;6.50;1.08;;;8.10;99.90;;;;;;5014028;28;20088;-74
2023/04/13 10:19:52;;;;;;;9.90;1.70;;;8.10;99.90;;;;;;5018068;28;20054;-72
2023/04/13 10:22:21;;;;;;;11.57;2.50;;;8.30;99.90;;;;;;5014811;28;20156;-73
2023/04/13 10:24:47;;;;;;;4.72;1.50;;;8.40;99.90;;;;;;4998539;28;20124;-72
2023/04/13 10:27:20;;;;;;;5.88;1.45;;;8.40;99.90;;;;;;5023440;28;20057;-72
2023/04/13 10:29:48;;;;;;;6.50;1.63;;;8.40;99.90;;;;;;5015248;28;20045;-72
2023/04/13 10:32:26;;;;;;;3.45;0.82;;;8.00;99.90;;;;;;4991130;28;20190;-73
2023/04/13 10:34:52;;;;;;;2.13;0.73;;;8.30;99.90;;;;;;5023273;28;20054;-73
2023/04/13 10:37:25;;;;;;;2.50;0.70;;;8.20;99.90;;;;;;5004963;28;20056;-74
2023/04/13 10:40:05;;;;;;;2.35;0.65;;;7.90;99.90;;;;;;5016350;28;20045;-73
2023/04/13 10:42:45;;;;;;;2.90;0.93;;;7.70;99.90;;;;;;5015216;28;20144;-73
2023/04/13 10:45:26;;;;;;;5.15;0.82;;;7.60;99.90;;;;;;4999542;28;20129;-73
2023/04/13 10:47:57;;;;;;;2.28;0.77;;;7.60;99.90;;;;;;5032637;28;20046;-73
2023/04/13 10:50:26;;;;;;;8.52;1.35;;;7.60;99.90;;;;;;5015736;28;20459;-73
2023/04/13 10:53:03;;;;;;;3.35;0.95;;;7.60;99.90;;;;;;4990516;28;20125;-73
2023/04/13 10:55:31;;;;;;;7.70;1.08;;;7.70;99.90;;;;;;5018738;28;20046;-74
2023/04/13 10:58:12;;;;;;;4.68;1.27;;;7.80;99.90;;;;;;5003441;28;20556;-73
2023/04/13 11:00:38;;;;;;;7.65;1.63;;;7.80;99.90;;;;;;5019882;28;20574;-73
2023/04/13 11:03:05;;;;;;;8.25;2.17;;;8.00;99.90;;;;;;5008266;28;20057;-73
2023/04/13 11:05:32;;;;;;;19.15;3.00;;;8.10;99.90;;;;;;5009267;28;20065;-74
2023/04/13 11:07:57;;;;;;;17.58;3.17;;;8.40;99.90;;;;;;5002921;28;20710;-73
2023/04/13 11:10:27;;;;;;;12.05;2.92;;;8.60;99.90;;;;;;5019951;28;20128;-73
2023/04/13 11:12:55;;;;;;;21.10;3.70;;;8.70;99.90;;;;;;5018091;28;20111;-73
2023/04/13 11:15:26;;;;;;;21.42;3.45;;;8.90;99.90;;;;;;5021771;28;20053;-74
2023/04/13 11:17:57;;;;;;;14.77;2.88;;;9.00;99.90;;;;;;5023430;28;20050;-73
2023/04/13 11:20:49;;;;;;;12.75;3.20;;;9.00;99.90;;;;;;5035372;28;20049;-73
2023/04/13 11:23:22;;;;;;;10.10;2.78;;;8.30;99.90;;;;;;5022257;28;20583;-74
2023/04/13 11:25:58;;;;;;;8.85;2.58;;;9.10;99.90;;;;;;5018073;28;20092;-74
2023/04/13 11:28:34;;;;;;;11.93;2.80;;;9.40;99.90;;;;;;5022836;28;20054;-74
2023/04/13 11:31:00;;;;;;;;;;;9.60;99.90;;;;;;5034466;28;20132;-74
2023/04/13 11:33:30;;;;;;;15.32;2.88;;;9.70;99.90;;;;;;5021741;28;20319;-74
2023/04/13 11:35:58;;;;;;;13.82;2.60;;;9.80;99.90;;;;;;5009933;28;20504;-74
2023/04/13 11:38:25;;;;;;;13.20;4.00;;;9.90;99.90;;;;;;5018287;28;20451;-74
2023/04/13 11:40:52;;;;;;;16.80;2.88;;;10.10;99.90;;;;;;4988525;28;20045;-74
2023/04/13 11:43:18;;;;;;;17.77;3.42;;;10.10;99.90;;;;;;5035288;28;20099;-73
2023/04/13 11:45:48;;;;;;;9.35;2.85;;;10.10;99.90;;;;;;5018190;28;20522;-73
2023/04/13 11:48:14;;;;;;;7.93;2.47;;;9.40;99.90;;;;;;5002237;28;20153;-73
2023/04/13 11:50:41;;;;;;;13.57;2.88;;;10.00;99.90;;;;;;5001191;28;20168;-73
2023/04/13 11:53:09;;;;;;;9.05;2.95;;;9.90;99.90;;;;;;5033396;28;20054;-73
2023/04/13 11:55:39;;;;;;;9.93;3.15;;;10.00;99.90;;;;;;5016978;28;20103;-73
2023/04/13 11:58:08;;;;;;;9.32;2.42;;;10.10;99.90;;;;;;4986771;28;20090;-73
2023/04/13 12:00:38;;;;;;;11.80;2.90;;;10.10;99.90;;;;;;5017987;28;20484;-73
2023/04/13 12:03:12;;;;;;;15.65;2.75;;;10.10;99.90;;;;;;5008737;28;20443;-73
2023/04/13 12:05:37;;;;;;;13.85;3.00;;;10.10;99.90;;;;;;5017559;28;20068;-73
2023/04/13 12:08:03;;;;;;;12.98;2.85;;;10.20;99.90;;;;;;5016373;28;20053;-73
2023/04/13 12:10:33;;;;;;;12.98;3.47;;;10.50;99.90;;;;;;4992766;28;20671;-74
2023/04/13 12:13:02;;;;;;;11.85;2.88;;;10.70;99.90;;;;;;5017975;28;20503;-72
2023/04/13 12:15:35;;;;;;;14.93;2.67;;;10.80;99.90;;;;;;5033308;28;20052;-74
2023/04/13 12:18:03;;;;;;;11.95;2.63;;;11.00;99.90;;;;;;5016856;28;20049;-74
2023/04/13 12:20:38;;;;;;;11.60;2.58;;;11.20;99.90;;;;;;5007565;28;20050;-72
2023/04/13 12:23:23;;;;;;;11.00;2.33;;;11.20;99.90;;;;;;5016243;28;20401;-72
2023/04/13 12:26:07;;;;;;;11.88;2.63;;;11.10;99.90;;;;;;5006314;28;20049;-73
2023/04/13 12:28:35;;;;;;;13.27;2.60;;;11.00;99.90;;;;;;5016600;28;20088;-74
2023/04/13 12:31:15;;;;;;;14.25;2.60;;;10.90;99.90;;;;;;5033268;28;20111;-73
2023/04/13 12:33:42;;;;;;;10.38;2.90;;;10.90;99.90;;;;;;4989664;28;20076;-73
2023/04/13 12:36:10;;;;;;;12.07;2.80;;;10.90;99.90;;;;;;5016795;28;20056;-73
2023/04/13 12:38:36;;;;;;;13.52;3.38;;;10.80;99.90;;;;;;5023305;28;20068;-73
2023/04/13 12:41:02;;;;;;;10.93;2.75;;;10.60;99.90;;;;;;5000788;28;20135;-73
2023/04/13 12:43:28;;;;;;;9.85;2.35;;;10.50;99.90;;;;;;4991943;28;20050;-73
2023/04/13 12:45:56;;;;;;;12.13;3.03;;;10.40;99.90;;;;;;4987674;28;20126;-73
2023/04/13 12:48:22;;;;;;;11.45;2.70;;;10.30;99.90;;;;;;4999253;28;20557;-74
2023/04/13 12:50:48;;;;;;;10.77;2.67;;;10.20;99.90;;;;;;4983389;28;20056;-75
2023/04/13 12:53:14;;;;;;;11.02;2.30;;;10.20;99.90;;;;;;5007749;28;20053;-73
2023/04/13 12:55:41;;;;;;;10.38;2.20;;;10.20;99.90;;;;;;5023135;28;20065;-74
2023/04/13 12:58:10;;;;;;;15.82;3.13;;;10.10;99.90;;;;;;5006769;28;20053;-73
2023/04/13 13:00:36;;;;;;;14.00;3.05;;;10.10;99.90;;;;;;4991606;28;20064;-74
2023/04/13 13:03:06;;;;;;;17.25;2.90;;;10.10;99.90;;;;;;5022093;28;20045;-74